Latest Weather Observations for Ivanhoe Airport

IDN60801

Issued at 12:33 pm EST Thursday 25 August 2016 (issued every 30 minutes, with the page automatically refreshed every 10 minutes)

About weather observations | Map of weather stations | Latest weather observations for NSW | Other Formats
Station Details ID: 049000 Name: IVANHOE AERODROME AWS Lat: -32.88 Lon: 144.31 Height: 100.0 m
Data from the previous 72 hours. | See also: Recent months at Ivanhoe Airport
Date/Time
EST
Temp
°C
App
Temp
°C
Dew
Point
°C
Rel
Hum
%
Delta-T
°C
Wind Press
QNH
hPa
Press
MSL
hPa
Rain since
9am
mm
Dir  Spd
km/h
Gust
km/h
Spd
kts
Gust
kts
25/12:30pm 12.5 8.0 4.2 57 3.8 SSW 17 24 9 13 1017.4 1017.4 0.0
25/12:00pm 13.0 9.1 5.4 60 3.6 SW 15 24 8 13 1017.4 1017.4 0.0
25/11:30am 12.6 8.4 5.8 63 3.2 SSW 17 22 9 12 1017.6 1017.6 0.0
25/11:00am 11.6 8.2 5.9 68 2.7 SW 13 19 7 10 1017.8 1017.8 0.0
25/10:30am 10.7 8.1 6.3 74 2.1 SSW 9 15 5 8 1017.7 1017.7 0.0
25/10:00am 9.8 6.8 6.2 78 1.7 SSW 11 17 6 9 1017.8 1017.8 0.0
25/09:30am 8.8 6.2 5.9 82 1.3 SSW 9 15 5 8 1017.6 1017.6 0.0
25/09:00am 7.2 4.0 5.0 86 1.0 SW 11 13 6 7 1017.4 1017.4 0.2
25/08:30am 6.0 2.3 4.3 89 0.7 SW 13 15 7 8 1017.1 1017.1 0.2
25/08:00am 4.7 1.2 3.4 91 0.5 SW 11 15 6 8 1016.6 1016.6 0.2
25/07:30am 3.6 -0.4 2.6 93 0.4 SW 13 17 7 9 1016.2 1016.3 0.2
25/07:00am 3.1 -0.6 2.5 96 0.2 WSW 11 13 6 7 1015.8 1015.9 0.2
25/06:30am 2.6 -1.2 1.9 95 0.3 WSW 11 13 6 7 1015.3 1015.4 0.2
25/06:00am 2.9 -1.2 2.5 97 0.2 WSW 13 15 7 8 1014.9 1015.0 0.2
25/05:30am 2.5 -1.2 2.1 97 0.2 W 11 13 6 7 1014.7 1014.8 0.2
25/05:00am 2.7 -1.0 2.1 96 0.2 W 11 11 6 6 1014.4 1014.5 0.2
25/04:30am 3.2 -0.5 2.3 94 0.4 W 11 11 6 6 1014.3 1014.4 0.2
25/04:00am 3.5 -0.2 2.6 94 0.4 WSW 11 11 6 6 1014.0 1014.1 0.2
25/03:30am 3.6 -0.1 2.6 93 0.4 W 11 11 6 6 1014.0 1014.1 0.2
25/03:00am 3.7 0.1 2.7 93 0.4 W 11 13 6 7 1014.0 1014.1 0.2
25/02:30am 3.8 0.1 2.6 92 0.5 W 11 11 6 6 1014.0 1014.1 0.2
25/02:00am 4.1 0.5 2.9 92 0.5 W 11 13 6 7 1013.9 1014.0 0.0
25/01:30am 4.5 1.3 3.2 91 0.5 W 9 11 5 6 1014.0 1014.1 0.0
25/01:00am 4.7 1.9 3.2 90 0.6 W 7 9 4 5 1014.2 1014.3 0.0
25/12:30am 5.0 1.8 3.3 89 0.7 W 9 11 5 6 1014.2 1014.3 0.0
25/12:00am 5.2 2.1 3.5 89 0.7 W 9 11 5 6 1014.4 1014.5 0.0
 
Date/Time
EST
Temp
°C
App
Temp
°C
Dew
Point
°C
Rel
Hum
%
Delta-T
°C
Wind Press
QNH
hPa
Press
MSL
hPa
Rain since
9am
mm
Dir  Spd
km/h
Gust
km/h
Spd
kts
Gust
kts
24/11:30pm 5.6 2.5 3.4 86 0.9 W 9 9 5 5 1014.3 1014.4 0.0
24/11:00pm 6.0 2.9 3.8 86 0.9 WSW 9 11 5 6 1014.3 1014.4 0.0
24/10:30pm 6.7 3.7 4.2 84 1.1 WSW 9 13 5 7 1014.3 1014.4 0.0
24/10:00pm 6.9 4.0 4.6 85 1.0 WSW 9 11 5 6 1014.2 1014.3 0.0
24/09:30pm 7.0 4.1 4.7 85 1.0 WSW 9 11 5 6 1014.0 1014.1 0.0
24/09:00pm 7.5 4.7 5.1 85 1.1 WSW 9 11 5 6 1013.8 1013.9 0.0
24/08:30pm 7.7 4.9 5.3 85 1.1 WSW 9 11 5 6 1013.6 1013.7 0.0
24/08:00pm 8.2 5.5 5.5 83 1.2 SW 9 11 5 6 1013.2 1013.3 0.0
24/07:30pm 8.4 5.7 5.5 82 1.3 WSW 9 9 5 5 1013.1 1013.1 0.0
24/07:00pm 9.2 6.5 5.8 79 1.6 SW 9 9 5 5 1012.7 1012.7 0.0
24/06:30pm 9.8 7.1 5.8 76 1.8 SSW 9 9 5 5 1012.3 1012.3 0.0
24/06:00pm 11.2 8.6 5.9 70 2.5 SSW 9 13 5 7 1012.0 1012.0 0.0
24/05:30pm 13.2 9.4 5.6 60 3.6 SSW 15 20 8 11 1011.7 1011.7 0.0
24/05:00pm 14.2 8.6 5.3 55 4.2 SSW 24 35 13 19 1011.4 1011.4 0.0
24/04:30pm 14.7 9.9 5.8 55 4.3 SSW 20 30 11 16 1011.0 1011.0 0.0
24/04:00pm 14.0 9.3 6.1 59 3.8 SSW 20 28 11 15 1011.2 1011.2 0.0
24/03:30pm 15.0 10.5 7.1 59 3.9 SSW 20 32 11 17 1011.0 1011.0 0.0
24/03:00pm 13.9 9.4 7.0 63 3.4 SSW 20 28 11 15 1011.0 1011.0 0.0
24/02:30pm 13.2 7.5 6.5 64 3.2 SSW 26 39 14 21 1011.1 1011.1 0.0
24/02:00pm 13.9 9.6 7.7 66 3.1 SSE 20 32 11 17 1011.2 1011.2 0.0
24/01:30pm 13.4 10.3 8.7 73 2.4 SSW 15 20 8 11 1011.5 1011.5 0.0
24/01:00pm 12.9 10.9 10.3 84 1.4 SSW 11 17 6 9 1012.0 1012.0 0.0
24/12:30pm 11.7 9.9 9.3 85 1.2 SW 9 13 5 7 1012.5 1012.5 0.0
24/12:00pm 11.1 9.3 9.4 89 0.9 SSW 9 13 5 7 1012.7 1012.7 0.0
24/11:30am 10.2 7.9 9.1 93 0.5 SW 11 13 6 7 1013.1 1013.1 0.0
24/11:00am 9.7 7.0 8.8 94 0.4 SW 13 17 7 9 1013.3 1013.4 0.0
24/10:30am 9.4 6.3 8.8 96 0.3 SW 15 19 8 10 1013.3 1013.4 0.0
24/10:00am 9.4 7.6 9.3 99 0.0 S 9 13 5 7 1013.4 1013.5 0.0
24/09:30am 9.1 6.8 9.0 99 0.0 SSW 11 17 6 9 1013.6 1013.7 0.0
24/09:00am 8.5 6.0 8.4 99 0.0 SSW 11 17 6 9 1013.8 1013.9 0.0
24/08:30am 8.3 6.2 8.2 99 0.0 SSW 9 15 5 8 1014.0 1014.1 0.0
24/08:00am 7.9 5.3 7.8 99 0.0 SW 11 15 6 8 1014.0 1014.1 0.0
24/07:30am 7.6 5.3 7.5 99 0.0 SSW 9 13 5 7 1013.7 1013.8 0.0
24/07:00am 7.2 5.2 7.1 99 0.0 S 7 9 4 5 1013.5 1013.6 0.0
24/06:30am 7.0 4.6 6.9 99 0.0 SSW 9 11 5 6 1013.4 1013.5 0.0
24/06:00am 7.1 4.7 7.0 99 0.0 SSW 9 13 5 7 1012.9 1012.9 0.0
24/05:30am 7.4 5.1 7.3 99 0.0 S 9 11 5 6 1012.8 1012.8 0.0
24/05:00am 7.6 5.3 7.5 99 0.0 S 9 13 5 7 1012.8 1012.8 0.0
24/04:30am 7.8 5.9 7.7 99 0.0 SSE 7 9 4 5 1012.9 1012.9 0.0
24/04:00am 7.6 5.3 7.5 99 0.0 S 9 13 5 7 1012.3 1012.3 0.0
24/03:30am 7.4 5.1 7.3 99 0.0 SSW 9 11 5 6 1012.6 1012.6 0.0
24/03:00am 7.4 5.1 7.3 99 0.0 S 9 11 5 6 1012.7 1012.7 0.0
24/02:30am 7.5 5.2 7.4 99 0.0 S 9 11 5 6 1013.0 1013.0 0.0
24/02:00am 7.9 6.1 7.8 99 0.0 S 7 11 4 6 1013.5 1013.6 0.0
24/01:30am 8.7 6.7 8.6 99 0.0 S 9 11 5 6 1013.5 1013.6 0.0
24/01:00am 9.1 7.2 9.0 99 0.0 S 9 11 5 6 1014.0 1014.1 0.0
24/12:30am 9.1 7.6 9.0 99 0.0 SSE 7 11 4 6 1014.3 1014.4 0.0
24/12:00am 8.8 6.8 8.7 99 0.0 SSE 9 11 5 6 1014.5 1014.6 0.0
 
Date/Time
EST
Temp
°C
App
Temp
°C
Dew
Point
°C
Rel
Hum
%
Delta-T
°C
Wind Press
QNH
hPa
Press
MSL
hPa
Rain since
9am
mm
Dir  Spd
km/h
Gust
km/h
Spd
kts
Gust
kts
23/11:30pm 8.4 6.7 8.3 99 0.0 SSE 7 11 4 6 1014.7 1014.8 0.0
23/11:00pm 8.5 6.0 8.4 99 0.0 SSE 11 11 6 6 1014.9 1015.0 0.0
23/10:30pm 8.6 6.9 8.5 99 0.0 SSE 7 9 4 5 1015.6 1015.7 0.0
23/10:00pm 8.4 6.7 8.3 99 0.0 SSE 7 9 4 5 1015.6 1015.7 0.0
23/09:30pm 8.4 6.3 8.3 99 0.0 SSE 9 11 5 6 1015.7 1015.8 0.0
23/09:00pm 8.3 6.6 8.2 99 0.0 SSE 7 9 4 5 1015.7 1015.8 0.0
23/08:30pm 7.9 5.2 7.3 96 0.3 SE 11 11 6 6 1015.2 1015.3 0.0
23/08:00pm 8.4 6.1 7.5 94 0.4 SSE 9 11 5 6 1015.2 1015.3 0.0
23/07:30pm 8.9 6.7 7.7 92 0.6 SSE 9 11 5 6 1015.3 1015.4 0.0
23/07:00pm 9.2 7.0 8.0 92 0.6 SSE 9 13 5 7 1015.1 1015.2 0.0
23/06:30pm 9.5 7.3 7.9 90 0.8 SSE 9 9 5 5 1014.9 1015.0 0.0
23/06:00pm 10.1 7.9 7.7 85 1.2 SSE 9 11 5 6 1014.6 1014.7 0.0
23/05:30pm 11.4 9.2 7.9 79 1.7 SSE 9 13 5 7 1014.8 1014.9 0.0
23/05:00pm 11.6 9.0 7.7 77 1.9 SE 11 15 6 8 1014.6 1014.7 0.0
23/04:30pm 12.0 9.4 7.9 76 2.0 SSE 11 15 6 8 1015.0 1015.1 0.0
23/04:00pm 11.6 9.0 7.7 77 1.9 SSE 11 15 6 8 1015.2 1015.3 0.0
23/03:30pm 11.7 8.7 7.8 77 1.9 SE 13 19 7 10 1014.8 1014.9 0.0
23/03:00pm 11.6 8.7 8.1 79 1.7 ESE 13 20 7 11 1015.2 1015.3 0.0
23/02:30pm 11.3 8.8 8.2 81 1.5 ESE 11 17 6 9 1015.7 1015.8 0.0
23/02:00pm 11.3 8.8 8.3 82 1.5 SE 11 19 6 10 1015.3 1015.4 0.0
23/01:30pm 10.6 8.1 8.4 86 1.1 SSE 11 17 6 9 1015.3 1015.4 0.0
23/01:00pm 10.3 8.0 9.1 92 0.6 SE 11 15 6 8 1015.2 1015.3 0.0
23/12:30pm 9.7 8.3 9.6 99 0.1 SE 7 13 4 7 1015.8 1015.9 0.0
23/12:00pm 9.5 7.3 9.4 99 0.0 SE 11 15 6 8 1016.0 1016.1 0.0
23/11:30am 8.4 6.9 8.4 100 0.0 SSE 6 11 3 6 1016.9 1016.9 0.0
23/11:00am 7.8 6.2 7.8 100 0.0 ESE 6 11 3 6 1016.8 1016.8 0.0
23/10:30am 7.6 7.0 7.6 100 0.0 CALM 0 0 0 0 1017.3 1017.3 0.0
23/10:00am 6.9 5.4 6.9 100 0.0 SE 4 7 2 4 1017.7 1017.7 0.0
23/09:30am 6.3 4.7 6.3 100 0.0 NE 4 9 2 5 1017.2 1017.2 0.0
23/09:00am 5.6 2.9 5.6 100 0.0 NNE 9 11 5 6 1017.5 1017.5 4.2
23/08:30am 4.7 3.5 4.7 100 0.0 CALM 0 6 0 3 1017.0 1017.0 4.2
23/08:00am 3.0 1.5 2.9 99 0.0 CALM 0 0 0 0 1016.9 1016.9 4.2
23/07:30am 2.5 -0.8 2.4 99 0.0 N 9 13 5 7 1017.6 1017.6 4.2
23/07:00am 2.0 -0.8 1.9 99 0.0 SW 6 7 3 4 1016.6 1016.6 4.2
23/06:30am 2.1 -1.3 2.0 99 0.0 SW 9 13 5 7 1014.9 1015.0 4.2
23/06:00am 1.9 -1.5 1.8 99 0.0 S 9 13 5 7 1013.8 1013.9 4.2
23/05:30am 2.4 -0.6 2.3 99 0.0 SSE 7 9 4 5 1014.7 1014.8 4.2
23/05:00am 2.9 0.0 2.8 99 0.0 SSW 7 9 4 5 1014.9 1015.0 4.2
23/04:30am 3.2 1.3 3.1 99 0.0 SW 2 6 1 3 1014.7 1014.8 4.0
23/04:00am 3.5 2.1 3.4 99 0.0 CALM 0 6 0 3 1014.7 1014.8 4.0
23/03:30am 3.4 1.2 3.3 99 0.0 SSW 4 9 2 5 1015.1 1015.2 4.0
23/03:00am 3.5 1.7 3.4 99 0.0 SSW 2 6 1 3 1015.1 1015.2 4.0
23/02:30am 3.7 2.3 3.6 99 0.0 CALM 0 0 0 0 1015.1 1015.2 4.0
23/02:00am 3.7 1.0 3.6 99 0.0 SW 7 9 4 5 1015.2 1015.3 4.0
23/01:30am 4.0 1.0 3.9 99 0.0 SW 9 9 5 5 1015.4 1015.5 4.0
23/01:00am 4.5 1.9 4.4 99 0.0 SW 7 9 4 5 1015.6 1015.7 4.0
23/12:30am 5.0 2.1 4.9 99 0.0 SW 9 11 5 6 1015.5 1015.6 4.0
23/12:00am 4.9 2.0 4.8 99 0.0 SSW 9 11 5 6 1015.3 1015.4 4.0
 
Date/Time
EST
Temp
°C
App
Temp
°C
Dew
Point
°C
Rel
Hum
%
Delta-T
°C
Wind Press
QNH
hPa
Press
MSL
hPa
Rain since
9am
mm
Dir  Spd
km/h
Gust
km/h
Spd
kts
Gust
kts
22/11:30pm 5.6 2.9 5.5 99 0.0 SSW 9 11 5 6 1015.4 1015.5 4.0
22/11:00pm 5.8 3.5 5.7 99 0.0 S 7 9 4 5 1015.3 1015.4 4.0
22/10:30pm 6.2 4.2 6.1 99 0.0 SSE 6 7 3 4 1015.0 1015.1 4.0
22/10:00pm 7.1 5.1 7.0 99 0.0 SSE 7 9 4 5 1015.1 1015.2 4.0
22/09:30pm 6.8 4.7 6.7 99 0.0 ESE 7 9 4 5 1015.0 1015.1 4.0
22/09:00pm 7.3 4.9 7.2 99 0.0 SE 9 11 5 6 1014.6 1014.7 4.0
22/08:30pm 8.2 6.4 8.1 99 0.0 SSE 7 7 4 4 1014.7 1014.8 4.0
22/08:00pm 8.7 6.7 8.6 99 0.0 SSE 9 11 5 6 1014.4 1014.5 4.0
22/07:30pm 9.0 6.7 8.9 99 0.0 SSW 11 17 6 9 1014.4 1014.5 4.0
22/07:00pm 9.2 6.9 9.1 99 0.0 SSW 11 13 6 7 1014.0 1014.1 4.0
22/06:30pm 9.3 7.1 9.2 99 0.0 S 11 13 6 7 1013.5 1013.6 4.0
22/06:00pm 9.5 7.3 9.4 99 0.0 S 11 17 6 9 1013.4 1013.5 3.8
22/05:30pm 9.8 7.7 9.7 99 0.1 SSW 11 20 6 11 1013.2 1013.3 3.8
22/05:00pm 10.0 7.4 9.2 95 0.4 SSW 13 19 7 10 1012.9 1012.9 3.4
22/04:30pm 10.5 7.8 8.9 90 0.8 S 13 17 7 9 1012.6 1012.6 3.4
22/04:00pm 10.8 8.5 8.9 88 0.9 S 11 17 6 9 1012.4 1012.4 3.4
22/03:30pm 11.1 8.7 10.0 93 0.6 S 13 17 7 9 1012.3 1012.3 3.4
22/03:00pm 10.5 8.5 10.0 97 0.3 S 11 15 6 8 1012.3 1012.3 3.4
22/02:30pm 10.5 8.9 10.2 98 0.2 S 9 13 5 7 1012.7 1012.7 3.4
22/02:00pm 10.5 8.4 9.7 95 0.4 S 11 15 6 8 1013.0 1013.0 2.6
22/01:30pm 10.4 8.5 9.2 92 0.6 S 9 13 5 7 1013.2 1013.3 2.6
22/01:00pm 10.5 8.0 8.4 87 1.0 S 11 17 6 9 1013.6 1013.7 2.2

Other Formats:

Comma delimited format used in spreadsheet applications
http://www.bom.gov.au/fwo/IDN60801/IDN60801.95697.axf

JavaScript Object Notation format (JSON) in row-major order
http://www.bom.gov.au/fwo/IDN60801/IDN60801.95697.json